Time;durP1;ratioP1;P1;durP2;ratioP2;P2;SDS_P1;SDS_P2;PMS_P1;PMS_P2;Temp;Humidity;BMP_temperature;BMP_pressure;BME280_temperature;BME280_humidity;BME280_pressure;Samples;Min_cycle;Max_cycle;Signal;HPM_P1;HPM_P2
2023/04/26 00:01:11;;;;;;;;;23.67;18.00;;;;;9.93;56.63;101525.25;5079342;28;46213;-40
2023/04/26 00:03:36;;;;;;;;;17.67;15.33;;;;;9.92;56.31;101531.53;5079369;28;45254;-42
2023/04/26 00:06:04;;;;;;;;;18.00;16.67;;;;;9.87;56.66;101527.56;5079634;28;45276;-41
2023/04/26 00:08:29;;;;;;;;;23.00;17.75;;;;;9.88;56.55;101534.56;5079468;28;45436;-41
2023/04/26 00:10:55;;;;;;;;;15.00;14.67;;;;;9.84;56.60;101533.97;5079377;28;46855;-41
2023/04/26 00:13:20;;;;;;;;;18.00;15.75;;;;;9.78;56.92;101526.50;5079323;28;45362;-44
2023/04/26 00:15:46;;;;;;;;;25.00;17.33;;;;;9.78;56.92;101528.31;5079577;28;45458;-42
2023/04/26 00:18:11;;;;;;;;;10.67;10.67;;;;;9.75;57.39;101535.53;5079699;28;45509;-42
2023/04/26 00:20:37;;;;;;;;;18.50;18.50;;;;;9.73;57.25;101523.31;5079330;28;46006;-41
2023/04/26 00:23:03;;;;;;;;;16.33;16.33;;;;;9.70;57.37;101513.81;5079452;28;45375;-42
2023/04/26 00:25:28;;;;;;;;;19.50;15.25;;;;;9.66;57.62;101516.84;5079383;28;45377;-43
2023/04/26 00:27:53;;;;;;;;;20.33;14.67;;;;;9.67;58.05;101519.34;5079667;28;45301;-42
2023/04/26 00:30:19;;;;;;;;;12.75;11.00;;;;;9.67;58.30;101515.88;5078384;28;45311;-42
2023/04/26 00:32:45;;;;;;;;;19.25;16.75;;;;;9.66;57.86;101506.22;5078798;28;45399;-41
2023/04/26 00:35:11;;;;;;;;;16.00;14.00;;;;;9.61;58.29;101500.44;5079402;28;45293;-42
2023/04/26 00:37:36;;;;;;;;;15.00;13.00;;;;;9.61;58.40;101495.94;5079109;28;45233;-42
2023/04/26 00:40:02;;;;;;;;;19.25;13.25;;;;;9.62;57.93;101497.63;5078932;28;50777;-40
2023/04/26 00:42:27;;;;;;;;;15.00;15.00;;;;;9.61;57.81;101506.56;5078800;28;45156;-46
2023/04/26 00:44:56;;;;;;;;;13.00;11.00;;;;;9.62;57.93;101500.28;5078985;28;45549;-42
2023/04/26 00:47:21;;;;;;;;;20.33;15.67;;;;;9.47;57.85;101472.28;5079008;28;45351;-49
2023/04/26 00:49:46;;;;;;;;;11.25;10.75;;;;;9.60;57.40;101494.25;5078647;28;45391;-41
2023/04/26 00:52:12;;;;;;;;;17.75;13.50;;;;;9.60;57.61;101493.41;5078744;28;45406;-42
2023/04/26 00:54:38;;;;;;;;;15.75;15.75;;;;;9.56;57.94;101481.31;5079114;28;45299;-41
2023/04/26 00:57:05;;;;;;;;;17.00;14.00;;;;;9.57;57.36;101489.19;5079138;28;45244;-42
2023/04/26 00:59:32;;;;;;;;;14.00;14.00;;;;;9.55;57.42;101485.78;5060611;28;46262;-43
2023/04/26 01:01:58;;;;;;;;;19.00;14.25;;;;;9.55;57.75;101483.16;5078569;28;45312;-41
2023/04/26 01:04:26;;;;;;;;;18.67;17.00;;;;;9.53;57.83;101479.78;5078523;28;45303;-41
2023/04/26 01:06:51;;;;;;;;;18.67;16.33;;;;;9.53;58.12;101484.25;5078950;28;45550;-41
2023/04/26 01:09:17;;;;;;;;;18.33;15.00;;;;;9.50;57.93;101475.53;5078424;28;45757;-45
2023/04/26 01:11:43;;;;;;;;;19.00;15.00;;;;;9.42;57.52;101464.69;5078628;28;45387;-41
2023/04/26 01:14:09;;;;;;;;;12.67;12.67;;;;;9.40;58.34;101458.66;5077815;28;45395;-48
2023/04/26 01:16:35;;;;;;;;;11.00;11.00;;;;;9.36;57.68;101459.03;5078909;28;45374;-46
2023/04/26 01:19:11;;;;;;;;;19.67;14.00;;;;;9.33;57.40;101473.38;5078406;28;45431;-45
2023/04/26 01:21:38;;;;;;;;;17.50;13.50;;;;;9.31;57.95;101469.97;5078488;28;45220;-45
2023/04/26 01:24:04;;;;;;;;;12.67;12.67;;;;;9.27;58.11;101462.38;5078411;28;45385;-47
2023/04/26 01:26:30;;;;;;;;;10.33;10.33;;;;;9.24;58.15;101468.78;5078776;28;45498;-46
2023/04/26 01:28:55;;;;;;;;;11.33;11.33;;;;;9.21;57.94;101458.41;5078230;28;46391;-45
2023/04/26 01:31:21;;;;;;;;;16.33;10.33;;;;;9.19;57.72;101457.69;5078178;28;45367;-45
2023/04/26 01:33:46;;;;;;;;;16.33;14.00;;;;;9.15;57.24;101446.47;5078476;28;45440;-42
2023/04/26 01:36:11;;;;;;;;;18.75;13.00;;;;;9.12;57.44;101446.72;5078468;28;45371;-45
2023/04/26 01:38:37;;;;;;;;;13.75;12.75;;;;;9.01;57.75;101430.75;5078182;28;46141;-47
2023/04/26 01:41:03;;;;;;;;;22.25;13.00;;;;;9.04;58.03;101442.97;5078026;28;45457;-46
2023/04/26 01:43:28;;;;;;;;;20.75;13.50;;;;;8.89;58.20;101429.06;5077317;28;45304;-49
2023/04/26 01:45:54;;;;;;;;;16.25;12.25;;;;;8.99;58.46;101451.28;5078415;28;45314;-43
2023/04/26 01:48:19;;;;;;;;;18.75;15.00;;;;;8.93;58.14;101444.66;5077627;28;46054;-44
2023/04/26 01:50:45;;;;;;;;;15.50;12.75;;;;;8.92;57.65;101447.41;5077757;28;45189;-44
2023/04/26 01:53:10;;;;;;;;;11.00;10.25;;;;;8.90;58.22;101457.31;5078053;28;45737;-42
2023/04/26 01:55:35;;;;;;;;;11.00;10.00;;;;;8.85;58.20;101455.00;5078140;28;45264;-46
2023/04/26 01:58:01;;;;;;;;;18.00;13.75;;;;;8.83;58.22;101453.44;5077923;28;46145;-45
2023/04/26 02:00:28;;;;;;;;;16.00;12.00;;;;;8.82;58.94;101455.25;5077591;28;45278;-47
2023/04/26 02:02:54;;;;;;;;;19.50;11.75;;;;;8.82;59.17;101460.53;5059803;28;45454;-45
2023/04/26 02:05:20;;;;;;;;;11.00;6.00;;;;;8.80;58.61;101448.34;5077938;28;45467;-43
2023/04/26 02:07:45;;;;;;;;;21.00;12.25;;;;;8.80;59.35;101446.53;5077322;28;46429;-47
2023/04/26 02:10:11;;;;;;;;;13.50;13.25;;;;;8.78;58.64;101442.34;5077893;28;45475;-44
2023/04/26 02:12:36;;;;;;;;;15.50;13.00;;;;;8.74;59.54;101434.59;5077928;28;45460;-47
2023/04/26 02:15:02;;;;;;;;;17.25;11.00;;;;;8.71;58.58;101431.34;5077948;28;45421;-43
2023/04/26 02:17:28;;;;;;;;;10.75;9.25;;;;;8.67;58.35;101435.19;5077723;28;47183;-47
2023/04/26 02:19:53;;;;;;;;;17.75;14.00;;;;;8.49;58.86;101416.22;5077755;28;45346;-44
2023/04/26 02:22:20;;;;;;;;;17.25;13.75;;;;;8.60;58.30;101437.47;5077945;28;45307;-46
2023/04/26 02:24:45;;;;;;;;;17.50;13.50;;;;;8.63;58.30;101439.88;5078096;28;45359;-47
2023/04/26 02:27:10;;;;;;;;;16.50;13.00;;;;;8.66;59.15;101444.94;5077233;28;46976;-44
2023/04/26 02:29:36;;;;;;;;;18.00;14.75;;;;;8.68;58.60;101442.16;5077080;28;45403;-42
2023/04/26 02:32:01;;;;;;;;;11.00;9.75;;;;;8.61;59.00;101435.66;5077568;28;45343;-43
2023/04/26 02:34:27;;;;;;;;;16.00;12.25;;;;;8.73;59.69;101451.50;5077572;28;45541;-44
2023/04/26 02:36:52;;;;;;;;;14.25;13.00;;;;;8.73;58.77;101451.50;5077028;28;46237;-45
2023/04/26 02:39:18;;;;;;;;;17.25;13.00;;;;;8.71;58.48;101440.13;5077593;28;45542;-44
2023/04/26 02:41:43;;;;;;;;;12.33;10.00;;;;;8.74;58.99;101444.38;5077257;28;45394;-42
2023/04/26 02:44:09;;;;;;;;;13.00;13.00;;;;;8.72;58.25;101441.84;5077398;28;45268;-44
2023/04/26 02:46:34;;;;;;;;;11.00;9.00;;;;;8.61;58.38;101420.59;5077526;28;46106;-52
2023/04/26 02:49:00;;;;;;;;;12.00;10.00;;;;;8.71;59.18;101432.19;5077425;28;45432;-47
2023/04/26 02:51:25;;;;;;;;;14.00;12.00;;;;;8.72;59.38;101430.38;5077156;28;45437;-47
2023/04/26 02:53:51;;;;;;;;;13.00;10.00;;;;;8.57;58.58;101408.53;5077272;28;45483;-40
2023/04/26 02:56:16;;;;;;;;;8.50;8.50;;;;;8.69;58.63;101431.47;5078876;28;47026;-42
2023/04/26 02:58:41;;;;;;;;;13.00;11.00;;;;;8.68;58.62;101428.91;5080857;28;45449;-40
2023/04/26 03:01:07;;;;;;;;;13.25;10.75;;;;;8.66;57.63;101426.38;5080876;28;45393;-48
2023/04/26 03:03:32;;;;;;;;;14.00;10.00;;;;;8.65;58.55;101429.16;5080889;28;45425;-47
2023/04/26 03:05:58;;;;;;;;;13.00;11.25;;;;;8.65;58.29;101429.16;5080285;28;47143;-43
2023/04/26 03:08:23;;;;;;;;;16.75;12.75;;;;;8.64;59.45;101440.75;5080566;28;45362;-42
2023/04/26 03:10:48;;;;;;;;;13.75;10.00;;;;;8.64;59.04;101433.63;5080596;28;45228;-44
2023/04/26 03:13:14;;;;;;;;;15.75;13.00;;;;;8.55;59.44;101428.16;5080702;28;45430;-46
2023/04/26 03:15:44;;;;;;;;;20.00;11.25;;;;;8.57;58.83;101436.84;5080434;28;45251;-46
2023/04/26 03:18:09;;;;;;;;;13.50;12.25;;;;;8.53;59.00;101428.28;5080335;28;45393;-47
2023/04/26 03:20:34;;;;;;;;;13.50;10.50;;;;;8.47;59.64;101437.56;5062016;28;45808;-45
2023/04/26 03:23:00;;;;;;;;;15.00;13.00;;;;;8.44;59.70;101429.00;5080827;28;45387;-46
2023/04/26 03:25:25;;;;;;;;;13.00;10.00;;;;;8.42;59.94;101430.91;5079908;28;45421;-45
2023/04/26 03:27:50;;;;;;;;;33.50;24.25;;;;;8.39;59.75;101431.16;5080056;28;47808;-43
2023/04/26 03:30:16;;;;;;;;;14.75;13.75;;;;;8.37;59.51;101427.75;5080302;28;45397;-41
2023/04/26 03:32:42;;;;;;;;;18.25;13.75;;;;;8.37;59.62;101438.34;5080421;28;45390;-44
2023/04/26 03:35:09;;;;;;;;;15.75;14.50;;;;;8.38;60.45;101440.03;5079870;28;46001;-45
2023/04/26 03:37:34;;;;;;;;;14.25;13.25;;;;;8.37;59.42;101438.34;5079872;28;45250;-42
2023/04/26 03:40:00;;;;;;;;;17.75;12.00;;;;;8.19;60.00;101409.59;5080090;28;45310;-46
2023/04/26 03:42:25;;;;;;;;;18.25;14.00;;;;;8.32;59.74;101425.41;5079628;28;45232;-43
2023/04/26 03:44:50;;;;;;;;;13.50;12.00;;;;;8.34;60.52;101427.94;5079652;28;45985;-42
2023/04/26 03:47:16;;;;;;;;;17.50;12.25;;;;;8.31;60.62;101429.03;5080026;28;45273;-48
2023/04/26 03:49:41;;;;;;;;;11.00;10.00;;;;;8.35;60.37;101424.34;5079693;28;45252;-46
2023/04/26 03:52:07;;;;;;;;;13.75;10.50;;;;;8.35;59.58;101421.72;5080068;28;45211;-41
2023/04/26 03:54:33;;;;;;;;;14.50;10.50;;;;;8.39;59.69;101425.84;5079626;28;46262;-47
2023/04/26 03:56:58;;;;;;;;;15.75;12.00;;;;;8.38;59.12;101424.13;5079886;28;45503;-45
2023/04/26 03:59:24;;;;;;;;;21.00;12.00;;;;;8.37;59.36;101417.16;5079525;28;45369;-42
2023/04/26 04:01:49;;;;;;;;;16.75;13.00;;;;;8.39;59.13;101420.53;5079630;28;45367;-43
2023/04/26 04:04:15;;;;;;;;;14.00;10.50;;;;;8.40;59.70;101424.88;5079382;28;45398;-47
2023/04/26 04:06:40;;;;;;;;;13.25;11.00;;;;;8.32;59.39;101414.81;5079114;28;45316;-47
2023/04/26 04:09:06;;;;;;;;;15.50;13.00;;;;;8.34;59.78;101418.19;5079904;28;45293;-48
2023/04/26 04:11:31;;;;;;;;;13.75;10.50;;;;;8.34;59.69;101417.34;5079554;28;45512;-42
2023/04/26 04:13:57;;;;;;;;;10.50;10.00;;;;;8.36;59.45;101413.63;5079361;28;47040;-42
2023/04/26 04:16:22;;;;;;;;;16.00;13.50;;;;;8.37;59.43;101420.63;5079742;28;45341;-46
2023/04/26 04:18:48;;;;;;;;;14.25;12.75;;;;;8.29;59.69;101411.53;5079536;28;45352;-45
2023/04/26 04:21:13;;;;;;;;;13.00;11.00;;;;;8.37;59.06;101433.06;5079361;28;45323;-46
2023/04/26 04:23:38;;;;;;;;;15.50;12.25;;;;;8.41;58.40;101429.22;5079183;28;51686;-44
2023/04/26 04:26:04;;;;;;;;;13.00;9.75;;;;;8.39;59.78;101417.91;5079059;28;45408;-46
2023/04/26 04:28:31;;;;;;;;;12.75;11.75;;;;;8.41;58.28;101431.88;5079598;28;45453;-45
2023/04/26 04:30:57;;;;;;;;;17.50;10.75;;;;;8.40;59.30;101424.88;5079445;28;45149;-46
2023/04/26 04:33:24;;;;;;;;;10.50;10.50;;;;;8.40;59.44;101412.47;5078840;28;46788;-45
2023/04/26 04:35:51;;;;;;;;;12.00;10.75;;;;;8.42;59.15;101420.28;5079083;28;45417;-44
2023/04/26 04:38:17;;;;;;;;;17.25;14.25;;;;;8.44;59.52;101415.72;5078989;28;45564;-42
2023/04/26 04:40:42;;;;;;;;;21.75;16.25;;;;;8.37;59.42;101406.53;5079417;28;45505;-45
2023/04/26 04:43:07;;;;;;;;;17.00;14.75;;;;;8.44;59.23;101429.84;5078983;28;45451;-48
2023/04/26 04:45:34;;;;;;;;;28.25;21.25;;;;;8.49;59.84;101425.03;5078989;28;45414;-43
2023/04/26 04:47:59;;;;;;;;;17.50;16.25;;;;;8.52;59.35;101423.94;5079069;28;45399;-43
2023/04/26 04:50:25;;;;;;;;;11.50;10.00;;;;;8.51;59.14;101424.88;5079013;28;45477;-47
2023/04/26 04:52:50;;;;;;;;;17.50;13.00;;;;;8.54;59.36;101422.00;5078911;28;45443;-47
2023/04/26 04:55:15;;;;;;;;;18.75;16.00;;;;;8.56;59.42;101425.41;5079020;28;45276;-48
2023/04/26 04:57:41;;;;;;;;;20.75;14.50;;;;;8.53;58.80;101415.03;5078821;28;45200;-47
2023/04/26 05:00:11;;;;;;;;;21.00;14.50;;;;;8.53;58.32;101411.53;5077927;28;45320;-48
2023/04/26 05:02:36;;;;;;;;;16.00;12.50;;;;;8.60;59.36;101418.91;5078516;28;45470;-41
2023/04/26 05:05:03;;;;;;;;;14.50;13.00;;;;;8.58;59.15;101417.31;5078596;28;45383;-49
2023/04/26 05:07:30;;;;;;;;;20.00;14.00;;;;;8.62;58.49;101426.75;5078875;28;45378;-43
2023/04/26 05:09:56;;;;;;;;;16.25;15.00;;;;;8.51;58.46;101414.28;5078776;28;45385;-43
2023/04/26 05:12:21;;;;;;;;;14.75;12.25;;;;;8.54;59.09;101414.06;5078489;28;46430;-46
2023/04/26 05:14:46;;;;;;;;;20.25;14.50;;;;;8.49;59.93;101402.97;5078657;28;45369;-46
2023/04/26 05:17:12;;;;;;;;;16.25;14.50;;;;;8.53;59.76;101406.22;5077799;28;45303;-42
2023/04/26 05:19:37;;;;;;;;;18.75;13.75;;;;;8.58;59.33;101419.97;5077402;28;45388;-42
2023/04/26 05:22:02;;;;;;;;;22.00;15.00;;;;;8.57;60.18;101419.13;5078035;28;46231;-44
2023/04/26 05:24:31;;;;;;;;;15.50;14.25;;;;;8.57;59.64;101427.09;5078378;28;45264;-47
2023/04/26 05:27:00;;;;;;;;;14.25;12.75;;;;;8.54;60.11;101429.97;5060288;28;45321;-48
2023/04/26 05:29:29;;;;;;;;;14.00;12.00;;;;;8.52;60.26;101429.25;5078493;28;45461;-46
2023/04/26 05:31:54;;;;;;;;;17.25;14.00;;;;;8.54;59.50;101434.44;5078285;28;45419;-43
2023/04/26 05:34:19;;;;;;;;;14.00;11.00;;;;;8.56;59.33;101443.97;5077996;28;45492;-42
2023/04/26 05:36:45;;;;;;;;;15.25;14.00;;;;;8.55;59.12;101431.66;5078385;28;45322;-41
2023/04/26 05:39:11;;;;;;;;;15.00;13.00;;;;;8.60;58.40;101432.16;5078408;28;45347;-41
2023/04/26 05:41:36;;;;;;;;;18.00;16.50;;;;;8.56;59.58;101432.53;5078053;28;45421;-41
2023/04/26 05:44:02;;;;;;;;;17.75;14.00;;;;;8.64;59.29;101441.59;5078012;28;45311;-41
2023/04/26 05:46:27;;;;;;;;;21.75;16.25;;;;;8.70;58.92;101441.09;5078062;28;46078;-42
2023/04/26 05:48:52;;;;;;;;;23.75;19.75;;;;;8.74;59.04;101442.56;5078441;28;45332;-43
2023/04/26 05:51:19;;;;;;;;;17.75;12.75;;;;;8.77;58.37;101440.66;5077737;28;46947;-42
2023/04/26 05:53:45;;;;;;;;;17.00;17.00;;;;;8.75;59.26;101435.44;5077650;28;45402;-42
2023/04/26 05:56:10;;;;;;;;;12.00;11.00;;;;;8.73;58.59;101432.91;5078002;28;45370;-40
2023/04/26 05:58:35;;;;;;;;;15.25;13.00;;;;;8.74;58.65;101434.59;5059941;28;45346;-42
2023/04/26 06:01:01;;;;;;;;;17.75;14.75;;;;;8.72;58.84;101433.00;5077965;28;45252;-42
2023/04/26 06:03:26;;;;;;;;;13.00;12.75;;;;;8.73;58.56;101438.22;5078008;28;45417;-42
2023/04/26 06:05:51;;;;;;;;;19.25;16.75;;;;;8.80;58.99;101445.69;5059653;28;45392;-43
2023/04/26 06:08:17;;;;;;;;;22.00;19.50;;;;;8.83;59.64;101450.78;5078080;28;45350;-42
2023/04/26 06:10:42;;;;;;;;;11.50;10.00;;;;;8.83;59.54;101438.34;5077593;28;46128;-42
2023/04/26 06:13:07;;;;;;;;;20.50;14.50;;;;;8.82;59.14;101446.44;5077956;28;45280;-42
2023/04/26 06:15:33;;;;;;;;;20.50;15.00;;;;;8.82;59.48;101451.75;5077830;28;45316;-41
2023/04/26 06:17:58;;;;;;;;;16.00;15.00;;;;;8.86;59.41;101451.38;5077900;28;45402;-42
2023/04/26 06:20:24;;;;;;;;;21.00;14.25;;;;;8.90;59.30;101458.16;5059544;28;45428;-42
2023/04/26 06:22:50;;;;;;;;;12.00;10.00;;;;;8.94;58.48;101450.81;5077462;28;45480;-46
2023/04/26 06:25:15;;;;;;;;;21.25;19.25;;;;;9.00;58.72;101456.47;5077466;28;45409;-41
2023/04/26 06:27:40;;;;;;;;;17.50;15.00;;;;;9.03;57.99;101451.91;5077715;28;45307;-41
2023/04/26 06:30:06;;;;;;;;;14.75;13.25;;;;;9.06;58.29;101457.81;5076937;28;46182;-44
2023/04/26 06:32:32;;;;;;;;;16.25;12.75;;;;;9.08;59.02;101441.75;5077388;28;45356;-44
2023/04/26 06:34:57;;;;;;;;;16.25;13.25;;;;;9.15;58.82;101435.84;5077473;28;45304;-41
2023/04/26 06:37:22;;;;;;;;;16.00;11.75;;;;;9.25;58.49;101436.81;5077596;28;45447;-41
2023/04/26 06:39:48;;;;;;;;;19.00;15.25;;;;;9.42;57.91;101434.63;5077138;28;47067;-45
2023/04/26 06:42:13;;;;;;;;;18.50;14.50;;;;;9.63;57.97;101440.88;5077260;28;45473;-43
2023/04/26 06:44:39;;;;;;;;;17.50;14.50;;;;;9.84;56.68;101438.28;5070220;28;45321;-42
2023/04/26 06:47:08;;;;;;;;;22.25;15.75;;;;;9.91;56.28;101441.31;5077523;27;45411;-40
2023/04/26 06:49:34;;;;;;;;;18.00;16.00;;;;;10.02;56.63;101435.94;5077100;27;46165;-40
2023/04/26 06:51:59;;;;;;;;;17.75;15.00;;;;;10.10;56.33;101435.31;5077012;28;45378;-40
2023/04/26 06:54:29;;;;;;;;;21.25;16.25;;;;;10.29;56.03;101450.63;5077156;27;45279;-42
2023/04/26 06:56:55;;;;;;;;;15.00;14.00;;;;;10.43;55.47;101443.19;5077534;27;45353;-41
2023/04/26 06:59:20;;;;;;;;;14.67;13.33;;;;;10.60;55.16;101440.91;5076880;27;45314;-42
2023/04/26 07:01:45;;;;;;;;;18.00;16.25;;;;;10.84;54.82;101452.13;5076868;27;45286;-40
2023/04/26 07:04:11;;;;;;;;;16.67;12.33;;;;;11.11;54.69;101448.06;5077319;27;45309;-42
2023/04/26 07:06:37;;;;;;;;;17.67;12.67;;;;;11.37;54.58;101445.78;5075927;28;45406;-40
2023/04/26 07:09:03;;;;;;;;;16.00;15.00;;;;;11.90;53.39;101448.22;5077215;27;45605;-41
2023/04/26 07:11:29;;;;;;;;;19.33;13.67;;;;;12.44;51.85;101442.34;5076741;27;45191;-42
2023/04/26 07:13:54;;;;;;;;;14.67;12.00;;;;;13.29;50.73;101437.94;5077122;27;45370;-43
2023/04/26 07:16:19;;;;;;;;;17.00;14.33;;;;;13.55;48.90;101440.75;5077404;27;45294;-41
2023/04/26 07:18:47;;;;;;;;;14.67;12.00;;;;;13.80;48.33;101443.72;5076832;27;46383;-41
2023/04/26 07:21:12;;;;;;;;;16.67;14.00;;;;;13.71;49.31;101440.09;5076682;27;45442;-41
2023/04/26 07:23:38;;;;;;;;;14.67;12.67;;;;;13.65;48.37;101454.06;5076863;27;45313;-42
2023/04/26 07:26:03;;;;;;;;;13.67;11.33;;;;;13.76;49.44;101447.69;5077175;27;45353;-42
2023/04/26 07:28:30;;;;;;;;;13.67;12.33;;;;;13.80;48.22;101449.91;5076672;27;46232;-42
2023/04/26 07:30:56;;;;;;;;;14.67;13.00;;;;;13.76;48.21;101448.50;5076718;27;45481;-40
2023/04/26 07:33:21;;;;;;;;;17.67;13.33;;;;;13.76;49.31;101451.19;5075319;28;45321;-41
2023/04/26 07:35:58;;;;;;;;;16.00;12.33;;;;;13.92;48.92;101439.84;5076814;27;45243;-43
2023/04/26 07:38:24;;;;;;;;;18.67;14.33;;;;;14.47;47.26;101435.16;5076467;27;46951;-40
2023/04/26 07:40:51;;;;;;;;;18.33;13.67;;;;;14.50;46.82;101433.22;5076634;27;45359;-41
2023/04/26 07:43:17;;;;;;;;;14.33;11.67;;;;;14.62;47.36;101427.44;5079913;27;45361;-42
2023/04/26 07:45:43;;;;;;;;;15.00;14.00;;;;;14.75;46.14;101424.34;5080298;27;45399;-41
2023/04/26 07:48:08;;;;;;;;;12.33;11.00;;;;;14.76;46.00;101425.19;5079929;27;46919;-41
2023/04/26 07:50:33;;;;;;;;;18.00;11.67;;;;;14.81;45.94;101423.72;5079982;27;45297;-47
2023/04/26 07:52:58;;;;;;;;;12.00;10.00;;;;;14.93;45.80;101413.56;5080097;27;45291;-42
2023/04/26 07:55:24;;;;;;;;;13.33;10.00;;;;;15.16;45.60;101411.16;5080413;27;45367;-41
2023/04/26 07:57:50;;;;;;;;;14.33;13.00;;;;;15.46;45.13;101410.66;5079742;27;46410;-42
2023/04/26 08:00:16;;;;;;;;;11.33;10.33;;;;;15.74;45.21;101417.63;5079983;27;45350;-42
2023/04/26 08:02:41;;;;;;;;;18.00;11.00;;;;;15.87;43.70;101413.44;5079890;28;45191;-40
2023/04/26 08:05:07;;;;;;;;;12.33;11.00;;;;;15.95;44.25;101413.47;5080138;27;45515;-42
2023/04/26 08:07:33;;;;;;;;;12.67;12.00;;;;;16.07;43.42;101414.00;5079523;27;46220;-41
2023/04/26 08:09:58;;;;;;;;;12.33;10.00;;;;;16.06;42.78;101416.84;5079650;27;45413;-41
2023/04/26 08:12:24;;;;;;;;;14.33;10.67;;;;;16.19;43.54;101415.34;5079937;27;45631;-44
2023/04/26 08:14:49;;;;;;;;;12.67;10.00;;;;;16.48;42.30;101411.31;5079809;28;45418;-43
2023/04/26 08:17:15;;;;;;;;;10.33;9.00;;;;;16.62;41.88;101409.78;5079604;27;47193;-44
2023/04/26 08:19:40;;;;;;;;;15.33;11.33;;;;;16.59;41.23;101402.91;5079539;27;45451;-46
2023/04/26 08:22:06;;;;;;;;;13.00;10.67;;;;;16.35;41.10;101403.78;5079448;27;45726;-48
2023/04/26 08:24:31;;;;;;;;;10.00;9.33;;;;;16.15;41.47;101403.25;5079768;27;45465;-44
2023/04/26 08:26:57;;;;;;;;;10.00;10.00;;;;;15.84;42.30;101404.88;5079251;27;45937;-40
2023/04/26 08:29:23;;;;;;;;;12.67;10.00;;;;;15.73;42.03;101405.22;5079479;27;45456;-41
2023/04/26 08:31:49;;;;;;;;;12.67;9.33;;;;;15.87;42.14;101404.56;5079419;27;45268;-40
2023/04/26 08:34:14;;;;;;;;;17.67;13.00;;;;;16.13;42.25;101394.53;5079579;27;45513;-40
2023/04/26 08:36:40;;;;;;;;;13.00;10.33;;;;;16.29;41.69;101390.16;5079403;27;45931;-40
2023/04/26 08:39:07;;;;;;;;;9.33;9.00;;;;;16.34;42.78;101394.03;5079293;27;45255;-45
2023/04/26 08:41:38;;;;;;;;;10.67;10.67;;;;;17.33;40.54;101389.28;5079309;27;45349;-46
2023/04/26 08:44:04;;;;;;;;;15.00;11.00;;;;;17.79;39.76;101384.03;5079213;27;45333;-45
2023/04/26 08:46:46;;;;;;;;;10.33;10.33;;;;;20.17;37.25;101381.16;5078857;27;47029;-47
2023/04/26 08:49:26;;;;;;;;;10.33;9.67;;;;;23.22;32.04;101373.91;5077816;28;45307;-44
2023/04/26 08:51:53;;;;;;;;;12.50;10.00;;;;;23.72;31.70;101370.53;5079051;27;45287;-48
2023/04/26 08:54:20;;;;;;;;;10.50;9.00;;;;;23.73;30.72;101366.78;5078106;28;45506;-43
2023/04/26 08:56:47;;;;;;;;;9.00;8.50;;;;;24.09;30.79;101376.97;5078864;27;47132;-41
2023/04/26 08:59:13;;;;;;;;;7.60;7.40;;;;;25.75;27.20;101375.22;5079225;28;45350;-40
2023/04/26 09:01:38;;;;;;;;;12.75;9.00;;;;;24.78;28.97;101375.16;5079053;27;45453;-42
2023/04/26 09:04:04;;;;;;;;;8.00;5.25;;;;;;;;5079281;27;45355;-41
2023/04/26 09:06:32;;;;;;;;;9.75;8.00;;;;;22.42;31.38;101381.38;5078606;28;46176;-41
2023/04/26 09:09:01;;;;;;;;;8.00;5.00;;;;;21.83;32.10;101377.53;5078731;27;45172;-39
2023/04/26 09:11:26;;;;;;;;;10.50;8.50;;;;;21.21;32.81;101381.25;5077660;28;45329;-44
2023/04/26 09:13:51;;;;;;;;;7.00;6.75;;;;;20.47;33.89;101381.81;5078896;27;45409;-44
2023/04/26 09:16:17;;;;;;;;;9.50;6.00;;;;;20.16;34.74;101379.47;5078405;27;45531;-46
2023/04/26 09:18:56;;;;;;;;;7.00;7.00;;;;;20.60;33.74;101367.59;5078731;27;45364;-44
2023/04/26 09:21:22;;;;;;;;;7.00;6.50;;;;;21.20;32.73;101370.66;5078504;27;45291;-44
2023/04/26 09:24:03;;;;;;;;;9.25;6.25;;;;;21.46;32.79;101373.47;5078898;28;45363;-44
2023/04/26 09:26:29;;;;;;;;;8.75;8.00;;;;;22.17;31.91;101371.16;5078391;27;47153;-41
2023/04/26 09:29:17;;;;;;;;;8.00;6.50;;;;;23.93;31.01;101366.66;5078510;27;45531;-43
2023/04/26 09:31:45;;;;;;;;;7.80;7.20;;;;;24.65;28.87;101359.81;5078648;27;45317;-43
2023/04/26 09:34:12;;;;;;;;;8.50;7.25;;;;;24.73;27.80;101362.19;5078553;27;45341;-41
2023/04/26 09:36:47;;;;;;;;;11.40;7.00;;;;;25.16;28.08;101360.50;5078233;27;46369;-41
2023/04/26 09:39:13;;;;;;;;;8.40;7.80;;;;;26.58;27.13;101358.78;5078170;27;45400;-42
2023/04/26 09:41:43;;;;;;;;;12.75;7.00;;;;;28.13;25.16;101364.34;5078332;27;45411;-41
2023/04/26 09:44:22;;;;;;;;;6.00;6.00;;;;;30.07;23.01;101359.41;5078040;27;45402;-41
2023/04/26 09:47:11;;;;;;;;;6.20;5.00;;;;;30.20;23.98;101357.34;5078023;27;46374;-41
2023/04/26 09:49:50;;;;;;;;;5.60;5.40;;;;;31.72;21.45;101362.75;5078096;28;45369;-42
2023/04/26 09:52:18;;;;;;;;;9.00;5.40;;;;;32.49;20.28;101352.59;5078067;27;45425;-42
2023/04/26 09:54:50;;;;;;;;;5.40;4.80;;;;;32.10;19.78;101335.81;5078246;27;45338;-41
2023/04/26 09:57:18;;;;;;;;;5.00;5.00;;;;;32.91;19.02;101337.59;5077914;27;45429;-46
2023/04/26 09:59:51;;;;;;;;;7.60;4.80;;;;;33.39;19.50;101340.66;5078074;27;45398;-43
2023/04/26 10:02:26;;;;;;;;;5.20;4.60;;;;;34.18;18.34;101333.19;5077859;27;45240;-47
2023/04/26 10:04:54;;;;;;;;;6.40;4.60;;;;;35.05;17.18;101326.72;5077588;27;45922;-45
2023/04/26 10:07:24;;;;;;;;;6.40;6.00;;;;;35.43;19.90;101335.84;5077832;27;45397;-47
2023/04/26 10:09:50;;;;;;;;;6.80;5.20;;;;;36.52;17.00;101310.78;5077786;27;45398;-45
2023/04/26 10:12:17;;;;;;;;;9.00;6.00;;;;;36.29;15.79;101329.22;5077846;27;45586;-46
2023/04/26 10:14:45;;;;;;;;;6.00;6.00;;;;;35.54;16.42;101331.03;5078133;27;45339;-47
2023/04/26 10:17:11;;;;;;;;;5.00;5.00;;;;;35.76;16.52;101330.38;5077609;27;47123;-43
2023/04/26 10:19:39;;;;;;;;;6.80;6.40;;;;;35.02;16.50;101323.72;5077692;27;45223;-49
2023/04/26 10:22:11;;;;;;;;;7.00;5.60;;;;;35.40;16.81;101335.66;5077564;27;45303;-46
2023/04/26 10:24:36;;;;;;;;;4.40;4.40;;;;;34.80;18.83;101332.53;5077805;27;45478;-44
2023/04/26 10:27:03;;;;;;;;;6.50;6.50;;;;;33.59;16.70;101322.38;5077604;27;46285;-45
2023/04/26 10:29:53;;;;;;;;;6.60;5.20;;;;;31.86;18.60;101324.56;5077429;27;45430;-42
2023/04/26 10:32:22;;;;;;;;;4.20;4.20;;;;;32.03;20.07;101327.03;5077541;28;45372;-45
2023/04/26 10:35:11;;;;;;;;;5.20;5.20;;;;;31.95;17.75;101319.34;5077812;27;45477;-45
2023/04/26 10:37:56;;;;;;;;;7.20;4.20;;;;;32.03;18.04;101314.09;5077134;28;47253;-44
2023/04/26 10:40:32;;;;;;;;;5.00;3.40;;;;;30.32;19.64;101319.56;5077369;27;45492;-48
2023/04/26 10:43:10;;;;;;;;;11.40;7.40;;;;;28.51;21.38;101308.84;5077254;27;45258;-42
2023/04/26 10:45:37;;;;;;;;;8.00;7.20;;;;;26.91;22.08;101323.75;5077546;27;45696;-45
2023/04/26 10:48:17;;;;;;;;;4.80;4.80;;;;;25.34;24.17;101325.91;5077236;27;46258;-43
2023/04/26 10:51:00;;;;;;;;;8.20;7.00;;;;;24.17;25.33;101326.94;5075786;28;45380;-47
2023/04/26 10:53:32;;;;;;;;;8.80;7.60;;;;;23.18;26.19;101314.84;5077012;27;45477;-46
2023/04/26 10:55:57;;;;;;;;;7.20;5.80;;;;;22.40;27.67;101329.22;5077697;27;45323;-46
2023/04/26 10:58:28;;;;;;;;;4.75;4.75;;;;;21.77;28.44;101334.19;5076869;27;47174;-41
2023/04/26 11:01:04;;;;;;;;;5.40;5.20;;;;;21.18;29.84;101325.66;5076819;27;45348;-47
2023/04/26 11:03:30;;;;;;;;;6.00;5.20;;;;;20.84;30.03;101315.75;5077153;27;45345;-42
2023/04/26 11:05:55;;;;;;;;;7.00;4.00;;;;;20.52;30.68;101310.97;5077329;27;45441;-47
2023/04/26 11:08:29;;;;;;;;;9.00;6.25;;;;;20.30;30.92;101320.97;5076758;27;46111;-45
2023/04/26 11:11:05;;;;;;;;;9.25;7.50;;;;;20.05;31.52;101324.09;5076981;27;45416;-43
2023/04/26 11:13:43;;;;;;;;;7.00;7.00;;;;;19.62;31.62;101320.59;5077206;27;45223;-42
2023/04/26 11:16:13;;;;;;;;;7.75;4.75;;;;;19.32;32.22;101327.91;5077447;27;45422;-41
2023/04/26 11:18:41;;;;;;;;;7.00;6.75;;;;;19.05;33.11;101333.00;5080362;27;46108;-41